createdAt,value
2022-08-09T00:00:20.349Z,22.74
2022-08-09T00:02:53.116Z,22.70
2022-08-09T00:06:19.506Z,22.63
2022-08-09T00:08:31.941Z,22.55
2022-08-09T00:11:24.540Z,22.60
2022-08-09T00:13:59.559Z,22.57
2022-08-09T00:16:36.443Z,22.57
2022-08-09T00:19:10.633Z,22.55
2022-08-09T00:21:56.026Z,22.54
2022-08-09T00:24:31.831Z,22.51
2022-08-09T00:27:04.995Z,22.47
2022-08-09T00:30:24.366Z,22.50
2022-08-09T00:32:32.139Z,22.47
2022-08-09T00:35:07.335Z,22.40
2022-08-09T00:37:40.220Z,22.41
2022-08-09T00:40:17.205Z,22.38
2022-08-09T00:44:09.986Z,22.46
2022-08-09T00:45:50.510Z,22.41
2022-08-09T00:48:26.823Z,22.38
2022-08-09T00:51:03.211Z,22.38
2022-08-09T00:53:46.421Z,22.36
2022-08-09T00:56:19.177Z,22.31
2022-08-09T00:58:52.077Z,22.23
2022-08-09T01:01:45.089Z,22.21
2022-08-09T01:04:27.535Z,22.23
2022-08-09T01:07:14.009Z,22.16
2022-08-09T01:09:54.087Z,22.19
2022-08-09T01:12:34.279Z,22.12
2022-08-09T01:15:17.571Z,22.11
2022-08-09T01:17:57.855Z,22.05
2022-08-09T01:20:49.517Z,22.07
2022-08-09T01:24:02.009Z,22.04
2022-08-09T01:26:56.224Z,22.06
2022-08-09T01:29:41.242Z,22.03
2022-08-09T01:32:37.369Z,21.98
2022-08-09T01:35:28.944Z,21.95
2022-08-09T01:38:15.146Z,21.96
2022-08-09T01:41:05.098Z,21.91
2022-08-09T01:43:51.964Z,21.89
2022-08-09T01:46:28.865Z,21.84
2022-08-09T01:49:09.487Z,21.73
2022-08-09T01:51:54.012Z,21.75
2022-08-09T01:54:32.893Z,21.74
2022-08-09T01:57:11.661Z,21.75
2022-08-09T01:59:59.994Z,21.69
2022-08-09T02:02:36.752Z,21.68
2022-08-09T02:05:16.119Z,21.62
2022-08-09T02:08:39.948Z,21.66
2022-08-09T02:10:51.305Z,21.59
2022-08-09T02:13:37.216Z,21.59
2022-08-09T02:16:18.582Z,21.58
2022-08-09T02:19:06.830Z,21.54
2022-08-09T02:21:42.740Z,21.54
2022-08-09T02:24:25.841Z,21.51
2022-08-09T02:27:03.438Z,21.48
2022-08-09T02:29:41.855Z,21.48
2022-08-09T02:32:19.511Z,21.52
2022-08-09T02:34:59.724Z,21.49
2022-08-09T02:37:36.696Z,21.47
2022-08-09T02:40:14.463Z,21.42
2022-08-09T02:43:01.363Z,21.45
2022-08-09T02:45:38.760Z,21.40
2022-08-09T02:48:30.442Z,21.37
2022-08-09T02:51:05.431Z,21.33
2022-08-09T02:53:43.069Z,21.30
2022-08-09T02:56:28.418Z,21.32
2022-08-09T02:59:04.779Z,21.30
2022-08-09T03:01:43.164Z,21.31
2022-08-09T03:04:36.929Z,21.31
2022-08-09T03:07:13.878Z,21.29
2022-08-09T03:09:54.375Z,21.30
2022-08-09T03:12:31.033Z,21.31
2022-08-09T03:15:06.016Z,21.24
2022-08-09T03:17:43.332Z,21.20
2022-08-09T03:20:17.635Z,21.22
2022-08-09T03:22:56.887Z,21.15
2022-08-09T03:25:58.034Z,21.13
2022-08-09T03:28:28.270Z,21.18
2022-08-09T03:31:04.463Z,21.09
2022-08-09T03:33:53.478Z,21.11
2022-08-09T03:36:29.262Z,21.10
2022-08-09T03:39:04.526Z,21.11
2022-08-09T03:41:44.851Z,21.08
2022-08-09T03:44:21.590Z,21.03
2022-08-09T03:47:00.537Z,21.03
2022-08-09T03:49:35.723Z,21.01
2022-08-09T03:52:11.632Z,20.98
2022-08-09T03:54:47.433Z,20.96
2022-08-09T03:57:24.108Z,20.93
2022-08-09T04:00:00.775Z,20.94
2022-08-09T04:02:46.061Z,20.94
2022-08-09T04:05:27.369Z,20.94
2022-08-09T04:08:02.285Z,20.94
2022-08-09T04:10:35.039Z,20.92
2022-08-09T04:13:11.436Z,20.88
2022-08-09T04:16:18.380Z,20.84
2022-08-09T04:18:40.882Z,20.86
2022-08-09T04:21:14.237Z,20.85
2022-08-09T04:23:53.774Z,20.84
2022-08-09T04:26:35.132Z,20.83
2022-08-09T04:29:15.729Z,20.80
2022-08-09T04:31:48.600Z,20.84
2022-08-09T04:34:30.468Z,20.85
2022-08-09T04:37:04.362Z,20.77
2022-08-09T04:39:40.826Z,20.83
2022-08-09T04:42:15.875Z,20.75
2022-08-09T04:44:51.455Z,20.76
2022-08-09T04:47:27.075Z,20.73
2022-08-09T04:50:19.678Z,20.74
2022-08-09T04:52:57.383Z,20.69
2022-08-09T04:55:43.596Z,20.72
2022-08-09T04:58:25.276Z,20.77
2022-08-09T05:00:58.727Z,20.70
2022-08-09T05:03:43.266Z,20.69
2022-08-09T05:06:22.012Z,20.70
2022-08-09T05:09:01.401Z,20.67
2022-08-09T05:11:36.104Z,20.64
2022-08-09T05:14:08.818Z,20.65
2022-08-09T05:16:58.136Z,20.68
2022-08-09T05:19:45.971Z,20.61
2022-08-09T05:22:34.929Z,20.67
2022-08-09T05:25:12.150Z,20.63
2022-08-09T05:27:50.761Z,20.68
2022-08-09T05:30:23.585Z,20.69
2022-08-09T05:32:56.431Z,20.69
2022-08-09T05:35:29.151Z,20.63
2022-08-09T05:38:05.283Z,20.66
2022-08-09T05:40:38.492Z,20.62
2022-08-09T05:43:12.593Z,20.63
2022-08-09T05:45:56.732Z,20.61
2022-08-09T05:48:33.117Z,20.62
2022-08-09T05:51:16.870Z,20.57
2022-08-09T05:53:59.374Z,20.62
2022-08-09T05:56:33.498Z,20.61
2022-08-09T05:59:07.633Z,20.57
2022-08-09T06:01:47.748Z,20.57
2022-08-09T06:04:23.362Z,20.62
2022-08-09T06:06:56.442Z,20.62
2022-08-09T06:09:54.978Z,20.69
2022-08-09T06:12:22.091Z,20.62
2022-08-09T06:15:01.897Z,20.67
2022-08-09T06:17:40.436Z,20.66
2022-08-09T06:20:13.490Z,20.58
2022-08-09T06:22:51.040Z,20.56
2022-08-09T06:25:23.927Z,20.63
2022-08-09T06:27:56.690Z,20.55
2022-08-09T06:30:30.784Z,20.47
2022-08-09T06:33:39.777Z,20.49
2022-08-09T06:35:58.366Z,20.56
2022-08-09T06:38:32.269Z,20.69
2022-08-09T06:41:18.762Z,20.63
2022-08-09T06:43:53.073Z,20.49
2022-08-09T06:46:40.324Z,20.56
2022-08-09T06:49:29.047Z,20.66
2022-08-09T06:52:11.937Z,20.69
2022-08-09T06:54:44.942Z,21.07
2022-08-09T06:57:17.618Z,20.99
2022-08-09T07:00:50.576Z,21.22
2022-08-09T07:02:52.780Z,21.19
2022-08-09T07:06:02.740Z,21.39
2022-08-09T07:08:18.672Z,21.48
2022-08-09T07:10:51.818Z,21.56
2022-08-09T07:13:28.378Z,21.16
2022-08-09T07:16:39.059Z,21.50
2022-08-09T07:18:57.714Z,21.33
2022-08-09T07:21:30.993Z,21.61
2022-08-09T07:24:07.985Z,21.93
2022-08-09T07:26:40.653Z,22.06
2022-08-09T07:29:13.690Z,22.17
2022-08-09T07:31:48.178Z,22.30
2022-08-09T07:34:23.459Z,22.43
2022-08-09T07:36:58.500Z,22.58
2022-08-09T07:39:41.126Z,22.72
2022-08-09T07:42:15.163Z,22.81
2022-08-09T07:44:52.540Z,22.92
2022-08-09T07:47:26.644Z,23.02
2022-08-09T07:50:07.846Z,23.15
2022-08-09T07:52:43.115Z,23.32
2022-08-09T07:55:16.416Z,23.42
2022-08-09T07:57:50.258Z,23.55
2022-08-09T08:00:36.487Z,23.59
2022-08-09T08:03:11.457Z,23.82
2022-08-09T08:05:54.232Z,23.90
2022-08-09T08:09:02.584Z,24.01
2022-08-09T08:12:11.532Z,24.10
2022-08-09T08:14:17.039Z,24.26
2022-08-09T08:17:00.483Z,24.29
2022-08-09T08:19:33.996Z,24.34
2022-08-09T08:22:09.046Z,24.56
2022-08-09T08:24:47.178Z,24.73
2022-08-09T08:27:21.882Z,24.88
2022-08-09T08:29:58.881Z,24.94
2022-08-09T08:32:36.618Z,25.19
2022-08-09T08:35:25.105Z,25.21
2022-08-09T08:38:11.845Z,25.37
2022-08-09T08:40:49.529Z,25.54
2022-08-09T08:43:23.663Z,25.72
2022-08-09T08:46:24.829Z,25.79
2022-08-09T08:48:54.824Z,25.77
2022-08-09T08:51:40.274Z,25.91
2022-08-09T08:54:20.300Z,26.04
2022-08-09T08:56:53.917Z,26.16
2022-08-09T08:59:46.609Z,26.37
2022-08-09T09:02:31.004Z,26.43
2022-08-09T09:05:06.022Z,26.69
2022-08-09T09:07:48.945Z,26.79
2022-08-09T09:10:26.214Z,26.84
2022-08-09T09:12:59.653Z,26.95
2022-08-09T09:15:41.988Z,27.01
2022-08-09T09:18:22.329Z,27.30
2022-08-09T09:20:57.816Z,27.48
2022-08-09T09:23:41.503Z,27.61
2022-08-09T09:26:26.060Z,27.30
2022-08-09T09:29:04.300Z,27.02
2022-08-09T09:32:04.441Z,26.45
2022-08-09T09:34:45.029Z,26.75
2022-08-09T09:37:32.137Z,26.87
2022-08-09T09:40:06.522Z,27.73
2022-08-09T09:42:43.049Z,26.85
2022-08-09T09:45:26.628Z,26.46
2022-08-09T09:48:05.040Z,26.84
2022-08-09T09:50:49.672Z,26.82
2022-08-09T09:53:43.952Z,27.41
2022-08-09T09:56:31.548Z,27.88
2022-08-09T09:59:08.578Z,26.47
2022-08-09T10:01:43.300Z,27.29
2022-08-09T10:04:23.093Z,27.74
2022-08-09T10:07:09.839Z,27.53
2022-08-09T10:09:54.988Z,27.13
2022-08-09T10:12:31.349Z,26.93
2022-08-09T10:15:17.724Z,28.50
2022-08-09T10:18:11.883Z,27.13
2022-08-09T10:20:45.592Z,27.54
2022-08-09T10:23:21.129Z,27.07
2022-08-09T10:26:06.123Z,27.30
2022-08-09T10:28:48.642Z,26.95
2022-08-09T10:34:32.653Z,29.12
2022-08-09T10:37:09.655Z,28.74
2022-08-09T10:39:49.156Z,28.15
2022-08-09T10:42:26.920Z,28.25
2022-08-09T10:45:04.441Z,28.23
2022-08-09T10:48:20.499Z,27.30
2022-08-09T10:51:12.116Z,27.64
2022-08-09T10:54:02.168Z,29.20
2022-08-09T10:56:39.750Z,28.27
2022-08-09T10:59:55.474Z,29.08
2022-08-09T11:03:27.582Z,28.48
2022-08-09T11:05:32.299Z,28.72
2022-08-09T11:08:43.773Z,29.85
2022-08-09T11:11:21.242Z,29.59
2022-08-09T11:14:28.507Z,30.34
2022-08-09T11:17:01.710Z,31.50
2022-08-09T11:20:11.088Z,31.88
2022-08-09T11:23:02.848Z,32.21
2022-08-09T11:25:48.661Z,32.41
2022-08-09T11:28:56.498Z,32.44
2022-08-09T11:31:52.619Z,32.54
2022-08-09T11:34:36.110Z,32.60
2022-08-09T11:37:18.199Z,32.53
2022-08-09T11:40:07.455Z,32.75
2022-08-09T11:42:51.578Z,32.85
2022-08-09T11:45:42.284Z,32.93
2022-08-09T11:48:26.792Z,33.06
2022-08-09T11:51:19.367Z,33.19
2022-08-09T11:54:28.634Z,33.25
2022-08-09T11:57:48.020Z,33.36
2022-08-09T12:00:34.877Z,33.42
2022-08-09T12:03:54.724Z,33.61
2022-08-09T12:06:15.708Z,33.63
2022-08-09T12:08:51.636Z,33.79
2022-08-09T12:11:26.482Z,33.61
2022-08-09T12:14:07.695Z,33.84
2022-08-09T12:16:44.917Z,33.80
2022-08-09T12:19:29.583Z,33.98
2022-08-09T12:22:04.999Z,34.03
2022-08-09T12:24:37.686Z,34.19
2022-08-09T12:28:59.388Z,34.26
2022-08-09T12:30:36.839Z,34.47
2022-08-09T12:33:07.719Z,34.52
2022-08-09T12:35:43.036Z,34.50
2022-08-09T12:38:37.525Z,34.67
2022-08-09T12:41:11.838Z,34.74
2022-08-09T12:44:05.258Z,34.73
2022-08-09T12:46:40.693Z,34.94
2022-08-09T12:49:13.853Z,34.98
2022-08-09T12:52:02.752Z,35.24
2022-08-09T12:55:03.442Z,35.12
2022-08-09T12:57:46.677Z,35.23
2022-08-09T13:00:25.162Z,35.31
2022-08-09T13:03:01.472Z,35.39
2022-08-09T13:05:51.767Z,35.43
2022-08-09T13:08:40.856Z,35.27
2022-08-09T13:11:23.370Z,35.28
2022-08-09T13:14:41.540Z,35.37
2022-08-09T13:16:54.557Z,35.52
2022-08-09T13:20:06.776Z,35.46
2022-08-09T13:23:00.385Z,35.53
2022-08-09T13:25:19.345Z,35.60
2022-08-09T13:27:55.641Z,35.66
2022-08-09T13:30:48.706Z,35.58
2022-08-09T13:33:53.176Z,35.51
2022-08-09T13:36:38.000Z,35.56
2022-08-09T13:41:18.989Z,35.61
2022-08-09T13:42:12.640Z,35.69
2022-08-09T13:44:48.673Z,35.64
2022-08-09T13:47:33.070Z,35.82
2022-08-09T13:50:29.988Z,35.79
2022-08-09T13:53:07.405Z,35.88
2022-08-09T13:55:41.079Z,35.95
2022-08-09T13:58:18.007Z,35.91
2022-08-09T14:00:52.635Z,35.90
2022-08-09T14:04:02.689Z,35.98
2022-08-09T14:06:25.666Z,36.16
2022-08-09T14:09:03.996Z,36.16
2022-08-09T14:11:46.931Z,36.12
2022-08-09T14:14:26.033Z,36.02
2022-08-09T14:17:00.155Z,36.13
2022-08-09T14:19:34.516Z,36.12
2022-08-09T14:22:07.924Z,36.19
2022-08-09T14:24:53.348Z,36.26
2022-08-09T14:27:26.958Z,36.25
2022-08-09T14:30:36.963Z,36.29
2022-08-09T14:32:52.350Z,36.31
2022-08-09T14:35:25.953Z,36.31
2022-08-09T14:38:18.514Z,36.42
2022-08-09T14:41:02.276Z,36.36
2022-08-09T14:43:53.250Z,36.38
2022-08-09T14:46:57.964Z,36.41
2022-08-09T14:49:19.615Z,36.46
2022-08-09T14:51:58.898Z,36.43
2022-08-09T14:54:33.916Z,36.47
2022-08-09T14:57:08.999Z,36.46
2022-08-09T14:59:45.498Z,36.45
2022-08-09T15:02:21.831Z,36.34
2022-08-09T15:04:55.839Z,36.39
2022-08-09T15:07:28.610Z,36.49
2022-08-09T15:10:11.341Z,36.65
2022-08-09T15:12:48.545Z,36.48
2022-08-09T15:15:23.037Z,36.49
2022-08-09T15:17:56.329Z,36.58
2022-08-09T15:21:57.883Z,36.58
2022-08-09T15:24:06.010Z,36.55
2022-08-09T15:26:19.030Z,36.52
2022-08-09T15:29:05.107Z,36.55
2022-08-09T15:31:41.679Z,36.63
2022-08-09T15:34:31.496Z,36.69
2022-08-09T15:37:37.487Z,36.62
2022-08-09T15:40:13.902Z,36.62
2022-08-09T15:42:48.276Z,36.56
2022-08-09T15:45:29.877Z,36.58
2022-08-09T15:48:07.595Z,36.62
2022-08-09T15:50:49.017Z,36.62
2022-08-09T15:54:04.484Z,36.57
2022-08-09T15:56:29.206Z,36.55
2022-08-09T15:59:03.898Z,36.53
2022-08-09T16:01:40.790Z,36.45
2022-08-09T16:04:15.640Z,36.43
2022-08-09T16:06:50.391Z,36.28
2022-08-09T16:09:32.591Z,36.30
2022-08-09T16:12:16.440Z,36.24
2022-08-09T16:14:49.250Z,36.21
2022-08-09T16:17:28.819Z,36.19
2022-08-09T16:20:04.790Z,36.13
2022-08-09T16:22:48.613Z,36.14
2022-08-09T16:25:36.941Z,35.97
2022-08-09T16:28:13.726Z,35.80
2022-08-09T16:30:58.877Z,35.79
2022-08-09T16:33:35.831Z,35.78
2022-08-09T16:36:17.632Z,35.75
2022-08-09T16:38:53.425Z,35.53
2022-08-09T16:42:02.998Z,35.46
2022-08-09T16:44:18.967Z,35.28
2022-08-09T16:46:55.214Z,35.19
2022-08-09T16:50:31.237Z,34.99
2022-08-09T16:52:28.882Z,34.73
2022-08-09T16:55:02.557Z,34.69
2022-08-09T16:58:09.027Z,34.59
2022-08-09T17:00:28.778Z,34.33
2022-08-09T17:03:03.412Z,34.38
2022-08-09T17:06:06.740Z,34.09
2022-08-09T17:08:46.353Z,34.08
2022-08-09T17:11:39.998Z,33.89
2022-08-09T17:14:25.486Z,33.72
2022-08-09T17:17:04.007Z,33.60
2022-08-09T17:20:28.286Z,33.36
2022-08-09T17:22:52.742Z,33.21
2022-08-09T17:25:26.250Z,33.17
2022-08-09T17:28:06.020Z,33.01
2022-08-09T17:30:38.768Z,32.89
2022-08-09T17:33:22.726Z,32.85
2022-08-09T17:35:55.926Z,32.88
2022-08-09T17:38:33.981Z,32.44
2022-08-09T17:41:11.165Z,32.49
2022-08-09T17:43:50.694Z,32.37
2022-08-09T17:46:39.237Z,32.29
2022-08-09T17:49:28.243Z,32.09
2022-08-09T17:52:03.808Z,32.07
2022-08-09T17:54:38.125Z,32.09
2022-08-09T17:57:20.675Z,31.66
2022-08-09T18:00:04.934Z,31.73
2022-08-09T18:02:57.899Z,31.57
2022-08-09T18:05:43.285Z,31.49
2022-08-09T18:08:16.670Z,31.43
2022-08-09T18:11:00.782Z,31.43
2022-08-09T18:13:43.520Z,31.16
2022-08-09T18:16:30.702Z,30.96
2022-08-09T18:20:54.130Z,30.91
2022-08-09T18:21:57.219Z,30.71
2022-08-09T18:24:33.731Z,30.41
2022-08-09T18:27:10.199Z,29.49
2022-08-09T18:30:38.593Z,29.11
2022-08-09T18:32:39.217Z,29.35
2022-08-09T18:35:12.230Z,28.94
2022-08-09T18:37:54.663Z,29.17
2022-08-09T18:40:27.676Z,29.13
2022-08-09T18:43:01.691Z,29.08
2022-08-09T18:46:47.067Z,28.70
2022-08-09T18:48:30.086Z,28.55
2022-08-09T18:51:03.559Z,28.65
2022-08-09T18:54:00.513Z,28.73
2022-08-09T18:56:30.741Z,28.78
2022-08-09T18:59:07.029Z,28.77
2022-08-09T19:01:45.894Z,28.35
2022-08-09T19:04:34.739Z,27.85
2022-08-09T19:07:08.177Z,26.47
2022-08-09T19:10:13.945Z,26.94
2022-08-09T19:12:37.040Z,26.40
2022-08-09T19:15:13.180Z,27.09
2022-08-09T19:17:55.133Z,27.53
2022-08-09T19:20:34.433Z,27.49
2022-08-09T19:23:16.531Z,26.84
2022-08-09T19:26:02.027Z,27.31
2022-08-09T19:28:38.274Z,27.53
2022-08-09T19:31:17.133Z,27.36
2022-08-09T19:33:49.955Z,27.13
2022-08-09T19:36:23.367Z,26.82
2022-08-09T19:39:05.791Z,26.87
2022-08-09T19:41:38.708Z,26.49
2022-08-09T19:44:15.267Z,26.94
2022-08-09T19:46:53.383Z,26.85
2022-08-09T19:50:08.285Z,26.81
2022-08-09T19:52:20.198Z,25.73
2022-08-09T19:54:52.913Z,25.95
2022-08-09T19:57:26.051Z,26.07
2022-08-09T20:00:07.299Z,25.37
2022-08-09T20:04:10.524Z,25.77
2022-08-09T20:05:46.409Z,25.25
2022-08-09T20:08:33.382Z,25.16
2022-08-09T20:11:08.175Z,25.90
2022-08-09T20:13:41.323Z,25.57
2022-08-09T20:16:35.314Z,25.53
2022-08-09T20:19:47.567Z,25.27
2022-08-09T20:22:09.826Z,26.32
2022-08-09T20:24:53.847Z,26.54
2022-08-09T20:27:29.146Z,26.62
2022-08-09T20:30:02.524Z,26.65
2022-08-09T20:32:36.037Z,26.57
2022-08-09T20:35:11.446Z,26.71
2022-08-09T20:38:20.787Z,26.85
2022-08-09T20:40:37.915Z,26.68
2022-08-09T20:43:24.412Z,26.70
2022-08-09T20:46:15.559Z,26.63
2022-08-09T20:48:50.723Z,26.62
2022-08-09T20:51:25.551Z,26.60
2022-08-09T20:53:58.321Z,26.60
2022-08-09T20:56:31.026Z,26.51
2022-08-09T20:59:03.773Z,26.46
2022-08-09T21:01:50.940Z,26.44
2022-08-09T21:05:57.595Z,26.31
2022-08-09T21:07:20.696Z,26.20
2022-08-09T21:10:03.312Z,26.22
2022-08-09T21:12:39.003Z,26.23
2022-08-09T21:15:13.387Z,26.15
2022-08-09T21:18:22.214Z,26.14
2022-08-09T21:20:39.684Z,26.07
2022-08-09T21:23:14.277Z,25.99
2022-08-09T21:25:59.387Z,26.02
2022-08-09T21:28:36.134Z,26.01
2022-08-09T21:31:17.856Z,26.02
2022-08-09T21:33:56.715Z,25.88
2022-08-09T21:36:30.513Z,25.84
2022-08-09T21:39:05.847Z,25.75
2022-08-09T21:42:05.686Z,25.84
2022-08-09T21:44:33.384Z,25.80
2022-08-09T21:47:09.926Z,25.62
2022-08-09T21:49:43.410Z,25.58
2022-08-09T21:52:20.707Z,25.57
2022-08-09T21:54:59.392Z,25.58
2022-08-09T21:57:59.238Z,25.65
2022-08-09T22:00:33.246Z,25.55
2022-08-09T22:03:08.127Z,25.44
2022-08-09T22:05:52.232Z,25.34
2022-08-09T22:08:26.520Z,25.34
2022-08-09T22:11:49.878Z,25.40
2022-08-09T22:13:53.478Z,25.15
2022-08-09T22:16:26.337Z,25.19
2022-08-09T22:18:59.029Z,25.27
2022-08-09T22:21:49.779Z,25.17
2022-08-09T22:24:24.760Z,25.14
2022-08-09T22:26:59.353Z,25.16
2022-08-09T22:29:46.568Z,25.12
2022-08-09T22:32:30.093Z,25.10
2022-08-09T22:35:06.807Z,25.12
2022-08-09T22:38:06.821Z,25.04
2022-08-09T22:40:49.144Z,24.96
2022-08-09T22:44:01.368Z,25.00
2022-08-09T22:48:11.990Z,24.96
2022-08-09T22:49:17.267Z,24.94
2022-08-09T22:51:56.980Z,25.04
2022-08-09T22:54:30.383Z,24.88
2022-08-09T22:57:03.111Z,24.90
2022-08-09T22:59:55.518Z,24.81
2022-08-09T23:02:30.026Z,24.69
2022-08-09T23:05:02.910Z,24.61
2022-08-09T23:08:27.270Z,24.57
2022-08-09T23:10:49.856Z,24.60
2022-08-09T23:13:22.612Z,24.44
2022-08-09T23:16:02.845Z,24.47
2022-08-09T23:18:36.486Z,24.47
2022-08-09T23:21:10.823Z,24.44
2022-08-09T23:23:44.171Z,24.41
2022-08-09T23:26:38.336Z,24.57
2022-08-09T23:29:13.696Z,24.48
2022-08-09T23:31:52.538Z,24.45
2022-08-09T23:34:27.056Z,24.33
2022-08-09T23:36:59.808Z,24.35
2022-08-09T23:39:32.723Z,24.38
2022-08-09T23:42:06.005Z,24.35
2022-08-09T23:44:38.997Z,24.34
2022-08-09T23:47:13.165Z,24.30
2022-08-09T23:49:45.997Z,24.34
2022-08-09T23:52:18.730Z,24.44
2022-08-09T23:54:57.182Z,24.36
2022-08-09T23:57:30.060Z,24.22
